createdAt,value
2019-04-06T00:01:32.044Z,76.18
2019-04-06T00:04:00.478Z,76.33
2019-04-06T00:06:28.905Z,76.14
2019-04-06T00:08:57.356Z,76.23
2019-04-06T00:11:25.786Z,76.26
2019-04-06T00:13:54.210Z,76.35
2019-04-06T00:16:22.671Z,76.33
2019-04-06T00:18:51.099Z,76.36
2019-04-06T00:21:19.529Z,76.19
2019-04-06T00:23:47.995Z,76.20
2019-04-06T00:26:16.764Z,75.89
2019-04-06T00:28:45.228Z,75.66
2019-04-06T00:31:30.734Z,75.82
2019-04-06T00:33:59.174Z,75.87
2019-04-06T00:36:27.604Z,75.96
2019-04-06T00:38:56.064Z,75.98
2019-04-06T00:41:24.485Z,76.05
2019-04-06T00:43:52.929Z,76.10
2019-04-06T00:46:21.657Z,76.27
2019-04-06T00:48:50.098Z,76.18
2019-04-06T00:51:18.533Z,76.14
2019-04-06T00:53:47.003Z,76.01
2019-04-06T00:56:15.431Z,76.25
2019-04-06T00:58:43.879Z,76.05
2019-04-06T01:01:12.804Z,76.30
2019-04-06T01:03:41.230Z,76.41
2019-04-06T01:06:09.800Z,76.30
2019-04-06T01:08:38.551Z,76.18
2019-04-06T01:11:07.066Z,76.32
2019-04-06T01:13:35.516Z,76.32
2019-04-06T01:16:03.941Z,76.57
2019-04-06T01:18:32.376Z,76.46
2019-04-06T01:21:00.970Z,76.46
2019-04-06T01:23:29.439Z,76.58
2019-04-06T01:26:06.607Z,76.47
2019-04-06T01:28:28.044Z,76.53
2019-04-06T01:30:56.549Z,76.54
2019-04-06T01:33:25.012Z,76.76
2019-04-06T01:35:53.433Z,76.74
2019-04-06T01:38:22.149Z,76.74
2019-04-06T01:40:50.615Z,76.44
2019-04-06T01:43:19.051Z,76.49
2019-04-06T01:45:47.506Z,76.40
2019-04-06T01:48:16.385Z,76.30
2019-04-06T01:50:45.171Z,76.18
2019-04-06T01:53:13.734Z,76.12
2019-04-06T01:55:42.201Z,76.17
2019-04-06T01:58:10.634Z,76.10
2019-04-06T02:00:40.704Z,75.91
2019-04-06T02:03:10.239Z,75.85
2019-04-06T02:05:38.668Z,76.02
2019-04-06T02:08:07.163Z,76.48
2019-04-06T02:10:35.622Z,76.04
2019-04-06T02:13:04.042Z,75.87
2019-04-06T02:15:32.470Z,75.95
2019-04-06T02:18:01.327Z,75.98
2019-04-06T02:20:29.784Z,76.04
2019-04-06T02:22:58.485Z,76.33
2019-04-06T02:25:27.273Z,76.33
2019-04-06T02:27:56.030Z,76.40
2019-04-06T02:30:29.082Z,76.30
2019-04-06T02:33:17.221Z,76.41
2019-04-06T02:35:50.304Z,76.45
2019-04-06T02:38:35.503Z,76.39
2019-04-06T02:41:09.015Z,76.18
2019-04-06T02:43:39.080Z,75.83
2019-04-06T02:46:07.593Z,76.36
2019-04-06T02:48:36.019Z,75.62
2019-04-06T02:51:04.716Z,75.57
2019-04-06T02:53:33.246Z,75.80
2019-04-06T02:56:01.671Z,75.96
2019-04-06T02:58:30.098Z,76.17
2019-04-06T03:00:58.618Z,76.41
2019-04-06T03:03:27.123Z,76.39
2019-04-06T03:05:55.539Z,76.32
2019-04-06T03:08:23.982Z,76.37
2019-04-06T03:10:52.481Z,76.57
2019-04-06T03:13:20.917Z,76.47
2019-04-06T03:15:49.365Z,76.51
2019-04-06T03:18:17.791Z,76.60
2019-04-06T03:20:46.225Z,76.68
2019-04-06T03:23:14.685Z,76.65
2019-04-06T03:25:43.101Z,76.60
2019-04-06T03:28:11.897Z,76.48
2019-04-06T03:30:40.340Z,76.63
2019-04-06T03:33:09.236Z,76.88
2019-04-06T03:35:37.840Z,76.94
2019-04-06T03:38:06.424Z,76.92
2019-04-06T03:40:34.835Z,76.76
2019-04-06T03:43:03.423Z,76.70
2019-04-06T03:45:31.910Z,76.72
2019-04-06T03:48:00.372Z,76.78
2019-04-06T03:50:28.908Z,76.72
2019-04-06T03:52:57.394Z,76.81
2019-04-06T03:55:25.790Z,76.66
2019-04-06T03:57:54.182Z,76.79
2019-04-06T04:00:22.653Z,77.05
2019-04-06T04:02:51.007Z,77.36
2019-04-06T04:05:19.467Z,77.24
2019-04-06T04:07:47.906Z,77.53
2019-04-06T04:10:28.070Z,77.57
2019-04-06T04:12:56.586Z,78.13
2019-04-06T04:15:25.005Z,78.24
2019-04-06T04:17:53.662Z,77.91
2019-04-06T04:20:22.218Z,77.67
2019-04-06T04:22:50.611Z,77.43
2019-04-06T04:25:19.007Z,77.47
2019-04-06T04:27:47.539Z,77.37
2019-04-06T04:30:31.062Z,77.34
2019-04-06T04:32:46.034Z,76.72
2019-04-06T04:35:14.466Z,76.27
2019-04-06T04:37:43.099Z,75.90
2019-04-06T04:40:11.635Z,75.81
2019-04-06T04:42:40.056Z,75.77
2019-04-06T04:45:09.188Z,75.79
2019-04-06T04:47:37.738Z,75.70
2019-04-06T04:50:07.919Z,75.99
2019-04-06T04:52:38.486Z,75.84
2019-04-06T04:55:08.173Z,76.13
2019-04-06T04:57:41.203Z,76.19
2019-04-06T05:00:07.539Z,76.47
2019-04-06T05:02:36.336Z,76.55
2019-04-06T05:05:06.536Z,77.00
2019-04-06T05:07:35.050Z,76.83
2019-04-06T05:10:04.590Z,76.84
2019-04-06T05:12:33.025Z,76.61
2019-04-06T05:15:04.069Z,76.69
2019-04-06T05:17:34.551Z,76.74
2019-04-06T05:20:07.063Z,77.05
2019-04-06T05:22:35.478Z,76.77
2019-04-06T05:25:05.639Z,76.50
2019-04-06T05:27:34.103Z,76.65
2019-04-06T05:30:02.512Z,76.56
2019-04-06T05:32:30.908Z,76.59
2019-04-06T05:34:59.578Z,76.81
2019-04-06T05:37:28.201Z,76.90
2019-04-06T05:39:56.658Z,77.24
2019-04-06T05:42:25.096Z,77.25
2019-04-06T05:44:53.501Z,77.20
2019-04-06T05:47:21.901Z,77.46
2019-04-06T05:49:50.337Z,77.88
2019-04-06T05:52:18.740Z,78.10
2019-04-06T05:54:47.146Z,78.47
2019-04-06T05:57:15.567Z,78.88
2019-04-06T05:59:43.966Z,79.16
2019-04-06T06:02:12.561Z,79.36
2019-04-06T06:04:41.327Z,79.32
2019-04-06T06:07:09.820Z,79.18
2019-04-06T06:09:38.271Z,79.54
2019-04-06T06:12:07.831Z,79.37
2019-04-06T06:14:36.416Z,80.18
2019-04-06T06:17:04.815Z,79.48
2019-04-06T06:19:33.209Z,78.37
2019-04-06T06:22:01.610Z,77.28
2019-04-06T06:24:30.191Z,77.17
2019-04-06T06:26:58.848Z,77.03
2019-04-06T06:29:27.249Z,76.94
2019-04-06T06:31:55.672Z,77.24
2019-04-06T06:34:24.068Z,75.28
2019-04-06T06:36:52.465Z,75.10
2019-04-06T06:39:20.882Z,73.06
2019-04-06T06:41:49.775Z,72.19
2019-04-06T06:44:18.205Z,72.75
2019-04-06T06:46:46.666Z,71.16
2019-04-06T06:49:15.025Z,71.22
2019-04-06T06:51:43.420Z,71.04
2019-04-06T06:54:12.113Z,71.07
2019-04-06T06:56:40.601Z,70.84
2019-04-06T06:59:09.304Z,71.58
2019-04-06T07:01:37.732Z,69.00
2019-04-06T07:04:06.132Z,70.05
2019-04-06T07:06:34.528Z,70.54
2019-04-06T07:09:04.588Z,70.52
2019-04-06T07:11:33.062Z,71.07
2019-04-06T07:14:01.447Z,71.52
2019-04-06T07:16:29.964Z,71.47
2019-04-06T07:18:58.588Z,72.26
2019-04-06T07:21:26.984Z,70.67
2019-04-06T07:23:55.752Z,70.61
2019-04-06T07:26:24.160Z,71.25
2019-04-06T07:28:52.599Z,68.68
2019-04-06T07:31:20.977Z,69.70
2019-04-06T07:33:49.380Z,69.34
2019-04-06T07:36:17.824Z,70.08
2019-04-06T07:38:46.363Z,69.70
2019-04-06T07:41:14.755Z,68.57
2019-04-06T07:43:43.152Z,66.47
2019-04-06T07:46:11.564Z,68.73
2019-04-06T07:48:40.029Z,67.43
2019-04-06T07:51:08.624Z,66.76
2019-04-06T07:53:37.417Z,64.66
2019-04-06T07:56:05.949Z,63.20
2019-04-06T07:58:34.280Z,64.52
2019-04-06T08:01:02.699Z,64.32
2019-04-06T08:03:31.095Z,63.62
2019-04-06T08:05:59.490Z,64.44
2019-04-06T08:08:28.977Z,63.94
2019-04-06T08:10:57.744Z,64.61
2019-04-06T08:13:26.293Z,63.29
2019-04-06T08:15:54.674Z,61.86
2019-04-06T08:18:23.757Z,64.30
2019-04-06T08:20:52.124Z,61.44
2019-04-06T08:23:20.549Z,61.34
2019-04-06T08:25:48.953Z,60.83
2019-04-06T08:28:17.361Z,60.39
2019-04-06T08:30:46.806Z,60.55
2019-04-06T08:33:15.613Z,61.28
2019-04-06T08:35:44.094Z,61.57
2019-04-06T08:38:12.821Z,59.66
2019-04-06T08:40:41.228Z,60.39
2019-04-06T08:43:09.912Z,60.83
2019-04-06T08:45:38.332Z,59.12
2019-04-06T08:48:07.065Z,58.62
2019-04-06T08:50:35.464Z,58.85
2019-04-06T08:53:03.894Z,59.80
2019-04-06T08:55:32.373Z,58.80
2019-04-06T08:58:00.771Z,59.36
2019-04-06T09:00:29.193Z,59.20
2019-04-06T09:02:57.601Z,57.44
2019-04-06T09:05:26.006Z,57.49
2019-04-06T09:07:54.441Z,57.00
2019-04-06T09:10:22.843Z,58.29
2019-04-06T09:12:51.238Z,58.48
2019-04-06T09:15:19.672Z,56.24
2019-04-06T09:17:48.074Z,55.53
2019-04-06T09:20:16.553Z,57.42
2019-04-06T09:22:45.097Z,55.40
2019-04-06T09:25:13.568Z,56.24
2019-04-06T09:27:41.968Z,56.12
2019-04-06T09:30:10.633Z,54.79
2019-04-06T09:32:39.034Z,55.50
2019-04-06T09:35:09.178Z,58.19
2019-04-06T09:37:37.638Z,55.38
2019-04-06T09:40:07.156Z,56.05
2019-04-06T09:42:35.577Z,55.25
2019-04-06T09:45:23.264Z,56.90
2019-04-06T09:48:08.658Z,55.69
2019-04-06T09:50:55.376Z,53.16
2019-04-06T09:53:26.392Z,52.22
2019-04-06T09:55:58.877Z,52.79
2019-04-06T09:58:34.920Z,52.23
2019-04-06T10:01:07.599Z,54.84
2019-04-06T10:03:46.448Z,51.01
2019-04-06T10:06:22.106Z,50.91
2019-04-06T10:08:52.183Z,53.33
2019-04-06T10:11:22.557Z,52.55
2019-04-06T10:13:52.627Z,51.88
2019-04-06T10:16:39.489Z,52.29
2019-04-06T10:19:28.098Z,52.14
2019-04-06T10:22:04.309Z,51.10
2019-04-06T10:24:50.541Z,49.39
2019-04-06T10:27:22.997Z,50.89
2019-04-06T10:29:56.045Z,50.61
2019-04-06T10:32:28.948Z,50.49
2019-04-06T10:35:14.243Z,51.41
2019-04-06T10:37:44.239Z,50.21
2019-04-06T10:40:20.266Z,48.53
2019-04-06T10:43:06.570Z,50.10
2019-04-06T10:45:42.339Z,49.07
2019-04-06T10:48:28.841Z,48.33
2019-04-06T10:50:58.916Z,51.29
2019-04-06T10:53:28.952Z,50.57
2019-04-06T10:56:01.754Z,50.23
2019-04-06T10:58:37.983Z,48.84
2019-04-06T11:01:19.629Z,48.61
2019-04-06T11:04:04.830Z,46.36
2019-04-06T11:06:35.004Z,48.53
2019-04-06T11:09:17.935Z,48.16
2019-04-06T11:11:48.136Z,48.19
2019-04-06T11:14:27.265Z,48.56
2019-04-06T11:17:15.353Z,48.98
2019-04-06T11:19:45.422Z,48.74
2019-04-06T11:22:24.590Z,49.72
2019-04-06T11:25:12.472Z,48.92
2019-04-06T11:27:57.878Z,47.24
2019-04-06T11:30:30.380Z,47.82
2019-04-06T11:33:16.578Z,45.26
2019-04-06T11:36:02.659Z,47.14
2019-04-06T11:38:42.881Z,47.76
2019-04-06T11:41:27.909Z,47.29
2019-04-06T11:44:00.635Z,45.66
2019-04-06T11:46:30.942Z,46.08
2019-04-06T11:49:01.119Z,46.84
2019-04-06T11:51:36.642Z,45.28
2019-04-06T11:54:06.778Z,43.96
2019-04-06T11:56:42.736Z,43.63
2019-04-06T11:59:27.498Z,45.70
2019-04-06T12:02:03.102Z,45.45
2019-04-06T12:04:48.462Z,45.87
2019-04-06T12:07:18.499Z,45.41
2019-04-06T12:10:03.635Z,47.55
2019-04-06T12:12:48.412Z,44.87
2019-04-06T12:15:27.733Z,44.56
2019-04-06T12:18:14.975Z,46.35
2019-04-06T12:21:02.248Z,45.18
2019-04-06T12:23:33.432Z,42.93
2019-04-06T12:26:09.629Z,43.04
2019-04-06T12:28:39.944Z,44.02
2019-04-06T12:31:12.994Z,42.52
2019-04-06T12:33:59.343Z,43.67
2019-04-06T12:36:44.712Z,42.91
2019-04-06T12:39:29.932Z,42.74
2019-04-06T12:42:16.480Z,44.04
2019-04-06T12:44:49.661Z,44.51
2019-04-06T12:47:25.772Z,43.97
2019-04-06T12:50:01.799Z,43.23
2019-04-06T12:52:41.229Z,42.95
2019-04-06T12:55:20.662Z,44.13
2019-04-06T12:57:56.495Z,44.83
2019-04-06T13:00:50.722Z,42.88
2019-04-06T13:03:20.409Z,43.20
2019-04-06T13:05:56.821Z,44.07
2019-04-06T13:08:43.149Z,43.36
2019-04-06T13:11:22.546Z,43.54
2019-04-06T13:14:01.271Z,42.20
2019-04-06T13:16:34.258Z,43.52
2019-04-06T13:19:22.377Z,41.73
2019-04-06T13:22:09.066Z,46.18
2019-04-06T13:24:45.033Z,42.91
2019-04-06T13:27:23.646Z,41.59
2019-04-06T13:29:59.802Z,41.80
2019-04-06T13:32:46.067Z,40.44
2019-04-06T13:35:18.868Z,42.79
2019-04-06T13:37:58.261Z,40.83
2019-04-06T13:40:31.282Z,40.88
2019-04-06T13:43:01.324Z,42.54
2019-04-06T13:45:47.302Z,42.48
2019-04-06T13:48:35.698Z,40.65
2019-04-06T13:51:11.673Z,42.19
2019-04-06T13:53:44.984Z,43.33
2019-04-06T13:56:30.883Z,44.42
2019-04-06T13:59:00.930Z,41.23
2019-04-06T14:01:30.986Z,40.73
2019-04-06T14:04:13.668Z,40.47
2019-04-06T14:06:43.718Z,45.51
2019-04-06T14:09:16.532Z,41.71
2019-04-06T14:11:52.326Z,40.24
2019-04-06T14:14:38.809Z,41.28
2019-04-06T14:17:08.900Z,41.91
2019-04-06T14:19:41.562Z,44.63
2019-04-06T14:22:17.562Z,43.75
2019-04-06T14:24:47.608Z,40.87
2019-04-06T14:27:20.091Z,40.39
2019-04-06T14:29:52.579Z,40.27
2019-04-06T14:32:22.617Z,40.41
2019-04-06T14:34:52.671Z,43.24
2019-04-06T14:37:22.721Z,39.32
2019-04-06T14:40:09.308Z,40.76
2019-04-06T14:42:42.818Z,39.60
2019-04-06T14:45:15.593Z,41.71
2019-04-06T14:47:45.881Z,40.89
2019-04-06T14:50:25.017Z,40.10
2019-04-06T14:53:03.792Z,39.89
2019-04-06T14:55:52.413Z,39.48
2019-04-06T14:58:39.137Z,38.44
2019-04-06T15:01:15.527Z,38.47
2019-04-06T15:03:45.771Z,39.78
2019-04-06T15:06:18.557Z,39.82
2019-04-06T15:08:48.831Z,37.87
2019-04-06T15:11:37.272Z,39.75
2019-04-06T15:14:23.836Z,40.41
2019-04-06T15:16:59.591Z,40.12
2019-04-06T15:19:32.130Z,39.58
2019-04-06T15:22:08.076Z,39.25
2019-04-06T15:24:44.090Z,39.97
2019-04-06T15:27:17.125Z,40.54
2019-04-06T15:29:47.164Z,40.37
2019-04-06T15:32:35.623Z,42.11
2019-04-06T15:35:15.724Z,42.61
2019-04-06T15:37:45.794Z,41.14
2019-04-06T15:40:23.032Z,40.56
2019-04-06T15:42:59.086Z,40.42
2019-04-06T15:45:47.158Z,40.89
2019-04-06T15:48:38.935Z,41.33
2019-04-06T15:51:08.532Z,41.74
2019-04-06T15:53:41.506Z,42.12
2019-04-06T15:56:14.090Z,41.87
2019-04-06T15:58:47.310Z,43.22
2019-04-06T16:01:20.489Z,43.39
2019-04-06T16:03:53.439Z,41.42
2019-04-06T16:06:29.859Z,41.47
2019-04-06T16:08:59.951Z,40.67
2019-04-06T16:11:32.743Z,41.37
2019-04-06T16:14:08.953Z,41.13
2019-04-06T16:16:41.676Z,40.95
2019-04-06T16:19:12.081Z,42.37
2019-04-06T16:21:42.149Z,42.60
2019-04-06T16:24:18.334Z,42.75
2019-04-06T16:27:00.157Z,41.14
2019-04-06T16:29:32.984Z,43.57
2019-04-06T16:32:11.667Z,43.40
2019-04-06T16:34:37.602Z,43.30
2019-04-06T16:37:22.890Z,45.27
2019-04-06T16:40:02.465Z,42.76
2019-04-06T16:42:38.320Z,42.62
2019-04-06T16:45:17.419Z,43.30
2019-04-06T16:47:56.431Z,44.24
2019-04-06T16:50:26.476Z,43.27
2019-04-06T16:52:59.901Z,43.77
2019-04-06T16:55:42.086Z,44.61
2019-04-06T16:58:20.598Z,44.21
2019-04-06T17:00:50.673Z,44.60
2019-04-06T17:03:32.908Z,45.31
2019-04-06T17:06:03.125Z,45.50
2019-04-06T17:08:51.050Z,46.52
2019-04-06T17:11:27.225Z,47.94
2019-04-06T17:14:09.527Z,49.32
2019-04-06T17:16:55.852Z,49.43
2019-04-06T17:20:05.153Z,49.53
2019-04-06T17:22:20.503Z,50.09
2019-04-06T17:24:50.987Z,50.48
2019-04-06T17:27:21.167Z,50.64
2019-04-06T17:29:57.709Z,50.38
2019-04-06T17:32:36.381Z,51.06
2019-04-06T17:35:03.776Z,50.98
2019-04-06T17:37:48.951Z,51.06
2019-04-06T17:40:25.412Z,51.31
2019-04-06T17:43:01.299Z,52.04
2019-04-06T17:45:34.659Z,51.68
2019-04-06T17:48:21.759Z,51.54
2019-04-06T17:50:57.588Z,51.92
2019-04-06T17:53:39.897Z,52.15
2019-04-06T17:56:10.033Z,52.23
2019-04-06T17:58:40.072Z,52.38
2019-04-06T18:01:26.675Z,52.84
2019-04-06T18:03:59.167Z,53.12
2019-04-06T18:06:37.355Z,53.25
2019-04-06T18:09:25.870Z,53.74
2019-04-06T18:11:55.928Z,53.76
2019-04-06T18:14:24.659Z,53.93
2019-04-06T18:16:53.106Z,54.44
2019-04-06T18:19:21.608Z,54.19
2019-04-06T18:21:50.016Z,54.90
2019-04-06T18:24:18.412Z,54.82
2019-04-06T18:26:46.832Z,54.63
2019-04-06T18:29:15.244Z,54.49
2019-04-06T18:31:52.630Z,54.51
2019-04-06T18:34:21.690Z,54.66
2019-04-06T18:36:54.603Z,54.87
2019-04-06T18:39:24.673Z,54.94
2019-04-06T18:41:53.665Z,55.45
2019-04-06T18:44:22.088Z,56.18
2019-04-06T18:46:50.487Z,56.95
2019-04-06T18:49:19.217Z,57.53
2019-04-06T18:51:47.858Z,57.82
2019-04-06T18:54:16.517Z,57.86
2019-04-06T18:56:44.981Z,58.41
2019-04-06T18:59:13.378Z,58.50
2019-04-06T19:01:41.786Z,58.74
2019-04-06T19:04:10.475Z,58.80
2019-04-06T19:06:38.874Z,58.90
2019-04-06T19:09:20.507Z,58.93
2019-04-06T19:11:39.204Z,59.52
2019-04-06T19:14:07.872Z,59.94
2019-04-06T19:16:36.666Z,59.90
2019-04-06T19:19:06.097Z,60.08
2019-04-06T19:21:34.566Z,60.35
2019-04-06T19:24:03.172Z,60.53
2019-04-06T19:26:31.563Z,60.86
2019-04-06T19:29:00.513Z,61.45
2019-04-06T19:31:28.919Z,61.66
2019-04-06T19:33:57.876Z,61.99
2019-04-06T19:36:26.309Z,62.22
2019-04-06T19:38:55.291Z,63.05
2019-04-06T19:41:23.887Z,63.50
2019-04-06T19:43:52.289Z,63.56
2019-04-06T19:46:20.686Z,62.76
2019-04-06T19:48:49.297Z,62.42
2019-04-06T19:51:17.692Z,62.56
2019-04-06T19:53:46.093Z,63.15
2019-04-06T19:56:14.605Z,63.06
2019-04-06T19:58:43.805Z,63.32
2019-04-06T20:01:12.479Z,63.81
2019-04-06T20:03:40.902Z,63.59
2019-04-06T20:06:09.304Z,63.76
2019-04-06T20:08:38.488Z,63.53
2019-04-06T20:11:06.823Z,63.57
2019-04-06T20:13:35.224Z,64.16
2019-04-06T20:16:04.651Z,63.58
2019-04-06T20:18:33.529Z,63.86
2019-04-06T20:21:01.901Z,64.11
2019-04-06T20:23:30.325Z,64.27
2019-04-06T20:25:58.735Z,65.45
2019-04-06T20:28:27.732Z,66.40
2019-04-06T20:30:57.106Z,67.09
2019-04-06T20:33:25.805Z,66.65
2019-04-06T20:35:54.499Z,66.86
2019-04-06T20:38:23.313Z,67.32
2019-04-06T20:40:51.733Z,66.70
2019-04-06T20:43:20.124Z,66.17
2019-04-06T20:45:48.882Z,67.68
2019-04-06T20:48:17.309Z,68.32
2019-04-06T20:50:46.117Z,67.10
2019-04-06T20:53:14.655Z,66.06
2019-04-06T20:55:43.624Z,67.58
2019-04-06T20:58:12.202Z,66.84
2019-04-06T21:00:40.751Z,67.59
2019-04-06T21:03:09.636Z,67.90
2019-04-06T21:05:38.322Z,68.43
2019-04-06T21:08:07.069Z,68.26
2019-04-06T21:10:36.216Z,68.49
2019-04-06T21:13:04.707Z,69.95
2019-04-06T21:15:33.086Z,70.00
2019-04-06T21:18:01.645Z,70.95
2019-04-06T21:20:30.130Z,70.41
2019-04-06T21:22:58.528Z,68.89
2019-04-06T21:25:27.530Z,68.35
2019-04-06T21:27:56.019Z,68.54
2019-04-06T21:30:24.565Z,69.55
2019-04-06T21:32:53.470Z,69.49
2019-04-06T21:35:22.425Z,68.33
2019-04-06T21:37:51.512Z,68.40
2019-04-06T21:40:20.100Z,68.96
2019-04-06T21:42:48.579Z,70.26
2019-04-06T21:45:17.147Z,70.13
2019-04-06T21:47:46.374Z,69.42
2019-04-06T21:50:14.906Z,69.13
2019-04-06T21:52:43.996Z,68.67
2019-04-06T21:55:13.901Z,69.19
2019-04-06T21:57:43.074Z,70.03
2019-04-06T22:00:13.944Z,70.32
2019-04-06T22:02:42.384Z,69.25
2019-04-06T22:05:11.015Z,68.80
2019-04-06T22:07:48.184Z,69.69
2019-04-06T22:10:10.690Z,68.88
2019-04-06T22:12:39.020Z,68.57
2019-04-06T22:15:08.614Z,68.64
2019-04-06T22:17:37.336Z,67.96
2019-04-06T22:20:06.349Z,67.88
2019-04-06T22:22:35.419Z,68.34
2019-04-06T22:25:05.803Z,69.06
2019-04-06T22:27:34.597Z,68.74
2019-04-06T22:30:06.167Z,69.19
2019-04-06T22:32:34.566Z,69.67
2019-04-06T22:35:03.459Z,69.92
2019-04-06T22:37:32.534Z,69.85
2019-04-06T22:40:02.238Z,69.68
2019-04-06T22:42:30.829Z,69.94
2019-04-06T22:44:59.227Z,69.88
2019-04-06T22:47:27.621Z,70.97
2019-04-06T22:49:56.045Z,69.83
2019-04-06T22:52:25.050Z,70.20
2019-04-06T22:54:54.186Z,70.71
2019-04-06T22:57:22.994Z,71.11
2019-04-06T22:59:51.397Z,71.45
2019-04-06T23:02:20.384Z,72.18
2019-04-06T23:04:57.581Z,71.71
2019-04-06T23:07:27.176Z,71.73
2019-04-06T23:09:55.572Z,72.27
2019-04-06T23:12:24.587Z,71.19
2019-04-06T23:14:53.713Z,71.14
2019-04-06T23:17:22.499Z,71.71
2019-04-06T23:19:50.949Z,71.92
2019-04-06T23:22:19.564Z,72.23
2019-04-06T23:24:48.006Z,72.64
2019-04-06T23:27:16.548Z,72.79
2019-04-06T23:29:44.915Z,72.77
2019-04-06T23:32:13.549Z,72.56
2019-04-06T23:34:42.015Z,73.12
2019-04-06T23:37:10.406Z,73.13
2019-04-06T23:39:39.025Z,72.94
2019-04-06T23:42:08.479Z,73.54
2019-04-06T23:44:37.358Z,72.92
2019-04-06T23:47:05.861Z,71.48
2019-04-06T23:49:34.982Z,71.76
2019-04-06T23:52:03.744Z,70.72
2019-04-06T23:54:32.181Z,70.62
2019-04-06T23:57:00.598Z,72.39
2019-04-06T23:59:29.008Z,71.63
